sensor_id;sensor_type;location;lat;lon;timestamp;P1;durP1;ratioP1;P2;durP2;ratioP2
30247;SDS011;17063;50.892;4.702;2022-09-09T00:04:00;3.33;;;1.20;;
30247;SDS011;17063;50.892;4.702;2022-09-09T00:06:31;4.70;;;1.40;;
30247;SDS011;17063;50.892;4.702;2022-09-09T00:09:23;2.43;;;1.47;;
30247;SDS011;17063;50.892;4.702;2022-09-09T00:11:52;6.17;;;1.37;;
30247;SDS011;17063;50.892;4.702;2022-09-09T00:14:29;3.43;;;1.30;;
30247;SDS011;17063;50.892;4.702;2022-09-09T00:17:02;3.50;;;1.20;;
30247;SDS011;17063;50.892;4.702;2022-09-09T00:22:24;4.53;;;1.30;;
30247;SDS011;17063;50.892;4.702;2022-09-09T00:24:53;4.13;;;1.40;;
30247;SDS011;17063;50.892;4.702;2022-09-09T00:30:13;3.90;;;1.20;;
30247;SDS011;17063;50.892;4.702;2022-09-09T00:32:53;6.63;;;1.50;;
30247;SDS011;17063;50.892;4.702;2022-09-09T00:35:29;4.83;;;1.27;;
30247;SDS011;17063;50.892;4.702;2022-09-09T00:38:05;3.80;;;1.10;;
30247;SDS011;17063;50.892;4.702;2022-09-09T00:40:39;4.33;;;1.60;;
30247;SDS011;17063;50.892;4.702;2022-09-09T00:43:18;5.17;;;1.30;;
30247;SDS011;17063;50.892;4.702;2022-09-09T00:48:45;4.40;;;1.63;;
30247;SDS011;17063;50.892;4.702;2022-09-09T00:51:42;2.00;;;1.30;;
30247;SDS011;17063;50.892;4.702;2022-09-09T00:57:35;4.53;;;1.37;;
30247;SDS011;17063;50.892;4.702;2022-09-09T01:08:52;7.83;;;1.43;;
30247;SDS011;17063;50.892;4.702;2022-09-09T01:16:55;6.20;;;1.70;;
30247;SDS011;17063;50.892;4.702;2022-09-09T01:20:25;6.67;;;1.50;;
30247;SDS011;17063;50.892;4.702;2022-09-09T01:28:16;4.43;;;1.13;;
30247;SDS011;17063;50.892;4.702;2022-09-09T01:30:44;4.93;;;1.30;;
30247;SDS011;17063;50.892;4.702;2022-09-09T01:33:15;3.80;;;1.37;;
30247;SDS011;17063;50.892;4.702;2022-09-09T01:36:03;2.43;;;1.10;;
30247;SDS011;17063;50.892;4.702;2022-09-09T01:38:39;5.83;;;1.40;;
30247;SDS011;17063;50.892;4.702;2022-09-09T01:41:06;1.87;;;1.00;;
30247;SDS011;17063;50.892;4.702;2022-09-09T01:43:56;2.57;;;1.03;;
30247;SDS011;17063;50.892;4.702;2022-09-09T01:46:24;4.53;;;1.30;;
30247;SDS011;17063;50.892;4.702;2022-09-09T01:48:52;3.40;;;1.30;;
30247;SDS011;17063;50.892;4.702;2022-09-09T01:51:20;2.93;;;1.07;;
30247;SDS011;17063;50.892;4.702;2022-09-09T01:53:48;6.83;;;1.20;;
30247;SDS011;17063;50.892;4.702;2022-09-09T02:04:41;3.13;;;1.30;;
30247;SDS011;17063;50.892;4.702;2022-09-09T02:10:01;5.20;;;1.57;;
30247;SDS011;17063;50.892;4.702;2022-09-09T02:12:44;5.90;;;1.23;;
30247;SDS011;17063;50.892;4.702;2022-09-09T02:15:16;5.53;;;1.30;;
30247;SDS011;17063;50.892;4.702;2022-09-09T02:17:49;7.13;;;1.10;;
30247;SDS011;17063;50.892;4.702;2022-09-09T02:20:17;5.70;;;1.30;;
30247;SDS011;17063;50.892;4.702;2022-09-09T02:22:53;3.77;;;1.30;;
30247;SDS011;17063;50.892;4.702;2022-09-09T02:25:23;5.47;;;1.40;;
30247;SDS011;17063;50.892;4.702;2022-09-09T02:27:53;4.53;;;1.27;;
30247;SDS011;17063;50.892;4.702;2022-09-09T02:30:20;5.17;;;1.30;;
30247;SDS011;17063;50.892;4.702;2022-09-09T02:32:52;5.83;;;1.50;;
30247;SDS011;17063;50.892;4.702;2022-09-09T02:35:34;8.77;;;1.43;;
30247;SDS011;17063;50.892;4.702;2022-09-09T02:38:05;6.33;;;1.30;;
30247;SDS011;17063;50.892;4.702;2022-09-09T02:40:35;8.23;;;2.00;;
30247;SDS011;17063;50.892;4.702;2022-09-09T02:43:02;5.17;;;1.70;;
30247;SDS011;17063;50.892;4.702;2022-09-09T02:45:33;4.30;;;1.07;;
30247;SDS011;17063;50.892;4.702;2022-09-09T02:50:40;7.27;;;1.90;;
30247;SDS011;17063;50.892;4.702;2022-09-09T02:53:43;6.90;;;1.30;;
30247;SDS011;17063;50.892;4.702;2022-09-09T02:56:15;4.30;;;1.30;;
30247;SDS011;17063;50.892;4.702;2022-09-09T02:58:47;7.57;;;1.60;;
30247;SDS011;17063;50.892;4.702;2022-09-09T03:01:14;4.00;;;1.10;;
30247;SDS011;17063;50.892;4.702;2022-09-09T03:03:41;6.23;;;1.60;;
30247;SDS011;17063;50.892;4.702;2022-09-09T03:06:12;5.83;;;1.13;;
30247;SDS011;17063;50.892;4.702;2022-09-09T03:08:39;4.63;;;1.40;;
30247;SDS011;17063;50.892;4.702;2022-09-09T03:11:16;7.97;;;1.30;;
30247;SDS011;17063;50.892;4.702;2022-09-09T03:13:44;6.67;;;1.30;;
30247;SDS011;17063;50.892;4.702;2022-09-09T03:16:11;6.47;;;1.63;;
30247;SDS011;17063;50.892;4.702;2022-09-09T03:18:42;7.23;;;2.17;;
30247;SDS011;17063;50.892;4.702;2022-09-09T03:21:12;7.83;;;1.30;;
30247;SDS011;17063;50.892;4.702;2022-09-09T03:23:40;7.30;;;1.50;;
30247;SDS011;17063;50.892;4.702;2022-09-09T03:26:07;9.13;;;1.50;;
30247;SDS011;17063;50.892;4.702;2022-09-09T03:28:39;4.87;;;1.50;;
30247;SDS011;17063;50.892;4.702;2022-09-09T03:31:06;6.33;;;1.43;;
30247;SDS011;17063;50.892;4.702;2022-09-09T03:33:39;5.93;;;1.30;;
30247;SDS011;17063;50.892;4.702;2022-09-09T03:36:10;7.13;;;1.43;;
30247;SDS011;17063;50.892;4.702;2022-09-09T03:38:37;6.83;;;1.30;;
30247;SDS011;17063;50.892;4.702;2022-09-09T03:41:05;9.83;;;1.37;;
30247;SDS011;17063;50.892;4.702;2022-09-09T03:43:32;7.57;;;1.50;;
30247;SDS011;17063;50.892;4.702;2022-09-09T03:45:59;6.03;;;1.10;;
30247;SDS011;17063;50.892;4.702;2022-09-09T03:48:27;6.97;;;1.47;;
30247;SDS011;17063;50.892;4.702;2022-09-09T03:50:55;9.73;;;1.90;;
30247;SDS011;17063;50.892;4.702;2022-09-09T03:53:25;5.73;;;1.53;;
30247;SDS011;17063;50.892;4.702;2022-09-09T03:55:53;5.80;;;1.07;;
30247;SDS011;17063;50.892;4.702;2022-09-09T03:58:22;7.83;;;1.77;;
30247;SDS011;17063;50.892;4.702;2022-09-09T04:00:59;8.83;;;1.93;;
30247;SDS011;17063;50.892;4.702;2022-09-09T04:03:27;7.27;;;1.40;;
30247;SDS011;17063;50.892;4.702;2022-09-09T04:05:55;8.90;;;1.50;;
30247;SDS011;17063;50.892;4.702;2022-09-09T04:08:25;5.83;;;1.33;;
30247;SDS011;17063;50.892;4.702;2022-09-09T04:10:52;6.57;;;1.50;;
30247;SDS011;17063;50.892;4.702;2022-09-09T04:13:26;5.60;;;1.20;;
30247;SDS011;17063;50.892;4.702;2022-09-09T04:15:56;6.23;;;1.20;;
30247;SDS011;17063;50.892;4.702;2022-09-09T04:18:24;5.93;;;1.67;;
30247;SDS011;17063;50.892;4.702;2022-09-09T04:20:52;8.07;;;1.40;;
30247;SDS011;17063;50.892;4.702;2022-09-09T04:23:22;7.03;;;1.30;;
30247;SDS011;17063;50.892;4.702;2022-09-09T04:25:53;8.53;;;1.60;;
30247;SDS011;17063;50.892;4.702;2022-09-09T04:28:22;8.40;;;1.50;;
30247;SDS011;17063;50.892;4.702;2022-09-09T04:30:51;6.17;;;1.40;;
30247;SDS011;17063;50.892;4.702;2022-09-09T04:33:19;7.70;;;1.50;;
30247;SDS011;17063;50.892;4.702;2022-09-09T04:35:48;4.23;;;1.30;;
30247;SDS011;17063;50.892;4.702;2022-09-09T04:38:17;3.33;;;1.30;;
30247;SDS011;17063;50.892;4.702;2022-09-09T04:40:48;8.50;;;1.73;;
30247;SDS011;17063;50.892;4.702;2022-09-09T04:43:16;12.73;;;1.73;;
30247;SDS011;17063;50.892;4.702;2022-09-09T04:45:43;9.03;;;1.40;;
30247;SDS011;17063;50.892;4.702;2022-09-09T04:48:10;11.00;;;1.43;;
30247;SDS011;17063;50.892;4.702;2022-09-09T04:50:37;7.10;;;1.40;;
30247;SDS011;17063;50.892;4.702;2022-09-09T04:53:04;5.63;;;1.83;;
30247;SDS011;17063;50.892;4.702;2022-09-09T04:55:33;8.87;;;1.53;;
30247;SDS011;17063;50.892;4.702;2022-09-09T04:58:04;8.43;;;2.03;;
30247;SDS011;17063;50.892;4.702;2022-09-09T05:00:32;4.17;;;1.40;;
30247;SDS011;17063;50.892;4.702;2022-09-09T05:03:02;6.90;;;1.97;;
30247;SDS011;17063;50.892;4.702;2022-09-09T05:05:31;10.83;;;1.97;;
30247;SDS011;17063;50.892;4.702;2022-09-09T05:08:04;10.00;;;1.50;;
30247;SDS011;17063;50.892;4.702;2022-09-09T05:10:32;6.90;;;1.70;;
30247;SDS011;17063;50.892;4.702;2022-09-09T05:13:00;8.87;;;1.53;;
30247;SDS011;17063;50.892;4.702;2022-09-09T05:15:29;9.50;;;2.03;;
30247;SDS011;17063;50.892;4.702;2022-09-09T05:17:59;8.43;;;1.70;;
30247;SDS011;17063;50.892;4.702;2022-09-09T05:20:29;6.43;;;1.67;;
30247;SDS011;17063;50.892;4.702;2022-09-09T05:22:56;8.77;;;1.70;;
30247;SDS011;17063;50.892;4.702;2022-09-09T05:25:26;8.70;;;2.60;;
30247;SDS011;17063;50.892;4.702;2022-09-09T05:27:56;9.30;;;2.40;;
30247;SDS011;17063;50.892;4.702;2022-09-09T05:30:22;7.40;;;1.93;;
30247;SDS011;17063;50.892;4.702;2022-09-09T05:32:50;10.50;;;1.67;;
30247;SDS011;17063;50.892;4.702;2022-09-09T05:35:17;5.77;;;1.80;;
30247;SDS011;17063;50.892;4.702;2022-09-09T05:37:45;11.87;;;2.00;;
30247;SDS011;17063;50.892;4.702;2022-09-09T05:40:12;13.67;;;1.90;;
30247;SDS011;17063;50.892;4.702;2022-09-09T05:42:40;13.80;;;1.90;;
30247;SDS011;17063;50.892;4.702;2022-09-09T05:45:08;11.70;;;2.10;;
30247;SDS011;17063;50.892;4.702;2022-09-09T05:47:36;6.17;;;1.80;;
30247;SDS011;17063;50.892;4.702;2022-09-09T05:50:06;9.30;;;2.10;;
30247;SDS011;17063;50.892;4.702;2022-09-09T05:52:34;9.17;;;1.93;;
30247;SDS011;17063;50.892;4.702;2022-09-09T05:55:02;7.37;;;1.67;;
30247;SDS011;17063;50.892;4.702;2022-09-09T05:57:30;5.17;;;1.60;;
30247;SDS011;17063;50.892;4.702;2022-09-09T05:59:57;7.90;;;2.17;;
30247;SDS011;17063;50.892;4.702;2022-09-09T06:02:24;10.07;;;1.63;;
30247;SDS011;17063;50.892;4.702;2022-09-09T06:04:51;8.10;;;1.83;;
30247;SDS011;17063;50.892;4.702;2022-09-09T06:07:22;5.07;;;1.53;;
30247;SDS011;17063;50.892;4.702;2022-09-09T06:09:49;7.03;;;2.03;;
30247;SDS011;17063;50.892;4.702;2022-09-09T06:12:17;6.80;;;1.80;;
30247;SDS011;17063;50.892;4.702;2022-09-09T06:14:45;5.70;;;1.70;;
30247;SDS011;17063;50.892;4.702;2022-09-09T06:17:13;7.23;;;1.73;;
30247;SDS011;17063;50.892;4.702;2022-09-09T06:19:40;9.93;;;2.10;;
30247;SDS011;17063;50.892;4.702;2022-09-09T06:22:07;10.87;;;1.80;;
30247;SDS011;17063;50.892;4.702;2022-09-09T06:24:35;13.53;;;1.73;;
30247;SDS011;17063;50.892;4.702;2022-09-09T06:27:02;12.37;;;1.93;;
30247;SDS011;17063;50.892;4.702;2022-09-09T06:29:33;8.97;;;1.90;;
30247;SDS011;17063;50.892;4.702;2022-09-09T06:32:01;6.70;;;1.83;;
30247;SDS011;17063;50.892;4.702;2022-09-09T06:34:29;8.37;;;1.70;;
30247;SDS011;17063;50.892;4.702;2022-09-09T06:36:57;7.37;;;1.50;;
30247;SDS011;17063;50.892;4.702;2022-09-09T06:39:31;15.47;;;2.43;;
30247;SDS011;17063;50.892;4.702;2022-09-09T06:42:01;10.67;;;2.10;;
30247;SDS011;17063;50.892;4.702;2022-09-09T06:44:47;5.03;;;1.53;;
30247;SDS011;17063;50.892;4.702;2022-09-09T06:47:24;14.20;;;2.10;;
30247;SDS011;17063;50.892;4.702;2022-09-09T06:49:52;9.20;;;1.80;;
30247;SDS011;17063;50.892;4.702;2022-09-09T06:52:19;8.43;;;2.27;;
30247;SDS011;17063;50.892;4.702;2022-09-09T06:54:50;7.50;;;1.70;;
30247;SDS011;17063;50.892;4.702;2022-09-09T06:57:17;12.77;;;1.70;;
30247;SDS011;17063;50.892;4.702;2022-09-09T07:00:05;10.10;;;1.60;;
30247;SDS011;17063;50.892;4.702;2022-09-09T07:02:32;8.17;;;1.63;;
30247;SDS011;17063;50.892;4.702;2022-09-09T07:05:06;6.93;;;1.80;;
30247;SDS011;17063;50.892;4.702;2022-09-09T07:07:34;7.80;;;1.77;;
30247;SDS011;17063;50.892;4.702;2022-09-09T07:10:04;9.83;;;1.80;;
30247;SDS011;17063;50.892;4.702;2022-09-09T07:12:32;3.97;;;1.50;;
30247;SDS011;17063;50.892;4.702;2022-09-09T07:15:00;7.80;;;1.97;;
30247;SDS011;17063;50.892;4.702;2022-09-09T07:17:27;6.43;;;1.60;;
30247;SDS011;17063;50.892;4.702;2022-09-09T07:19:56;6.43;;;1.53;;
30247;SDS011;17063;50.892;4.702;2022-09-09T07:22:23;10.93;;;2.10;;
30247;SDS011;17063;50.892;4.702;2022-09-09T07:24:49;7.93;;;1.37;;
30247;SDS011;17063;50.892;4.702;2022-09-09T07:27:17;6.83;;;1.57;;
30247;SDS011;17063;50.892;4.702;2022-09-09T07:29:46;8.53;;;1.77;;
30247;SDS011;17063;50.892;4.702;2022-09-09T07:32:13;7.20;;;1.83;;
30247;SDS011;17063;50.892;4.702;2022-09-09T07:34:39;14.67;;;1.90;;
30247;SDS011;17063;50.892;4.702;2022-09-09T07:37:06;11.37;;;1.90;;
30247;SDS011;17063;50.892;4.702;2022-09-09T07:39:34;10.30;;;2.30;;
30247;SDS011;17063;50.892;4.702;2022-09-09T07:42:01;8.03;;;1.70;;
30247;SDS011;17063;50.892;4.702;2022-09-09T07:44:28;8.00;;;1.33;;
30247;SDS011;17063;50.892;4.702;2022-09-09T07:47:02;8.53;;;2.00;;
30247;SDS011;17063;50.892;4.702;2022-09-09T07:49:37;4.83;;;1.50;;
30247;SDS011;17063;50.892;4.702;2022-09-09T07:52:05;6.47;;;1.60;;
30247;SDS011;17063;50.892;4.702;2022-09-09T07:54:40;6.87;;;1.77;;
30247;SDS011;17063;50.892;4.702;2022-09-09T07:57:07;10.13;;;2.00;;
30247;SDS011;17063;50.892;4.702;2022-09-09T07:59:36;5.70;;;1.87;;
30247;SDS011;17063;50.892;4.702;2022-09-09T08:02:03;10.80;;;2.23;;
30247;SDS011;17063;50.892;4.702;2022-09-09T08:04:33;8.07;;;1.70;;
30247;SDS011;17063;50.892;4.702;2022-09-09T08:07:00;8.93;;;1.70;;
30247;SDS011;17063;50.892;4.702;2022-09-09T08:09:36;11.43;;;2.17;;
30247;SDS011;17063;50.892;4.702;2022-09-09T08:12:09;7.83;;;1.80;;
30247;SDS011;17063;50.892;4.702;2022-09-09T08:14:37;7.77;;;1.90;;
30247;SDS011;17063;50.892;4.702;2022-09-09T08:17:04;9.20;;;1.60;;
30247;SDS011;17063;50.892;4.702;2022-09-09T08:19:31;5.70;;;1.77;;
30247;SDS011;17063;50.892;4.702;2022-09-09T08:22:06;10.47;;;1.77;;
30247;SDS011;17063;50.892;4.702;2022-09-09T08:24:35;7.03;;;1.73;;
30247;SDS011;17063;50.892;4.702;2022-09-09T08:27:02;6.27;;;1.70;;
30247;SDS011;17063;50.892;4.702;2022-09-09T08:29:29;10.70;;;1.93;;
30247;SDS011;17063;50.892;4.702;2022-09-09T08:31:57;6.63;;;1.30;;
30247;SDS011;17063;50.892;4.702;2022-09-09T08:34:25;9.73;;;1.60;;
30247;SDS011;17063;50.892;4.702;2022-09-09T08:36:54;8.03;;;1.57;;
30247;SDS011;17063;50.892;4.702;2022-09-09T08:39:28;9.10;;;2.07;;
30247;SDS011;17063;50.892;4.702;2022-09-09T08:50:38;10.87;;;1.47;;
30247;SDS011;17063;50.892;4.702;2022-09-09T08:53:23;10.10;;;1.97;;
30247;SDS011;17063;50.892;4.702;2022-09-09T08:55:57;8.30;;;1.77;;
30247;SDS011;17063;50.892;4.702;2022-09-09T08:58:35;5.57;;;1.30;;
30247;SDS011;17063;50.892;4.702;2022-09-09T09:07:25;5.70;;;1.47;;
30247;SDS011;17063;50.892;4.702;2022-09-09T09:12:55;9.27;;;1.93;;
30247;SDS011;17063;50.892;4.702;2022-09-09T09:15:23;7.83;;;2.33;;
30247;SDS011;17063;50.892;4.702;2022-09-09T09:17:57;7.07;;;1.70;;
30247;SDS011;17063;50.892;4.702;2022-09-09T09:20:32;6.27;;;1.87;;
30247;SDS011;17063;50.892;4.702;2022-09-09T09:23:05;9.97;;;2.10;;
30247;SDS011;17063;50.892;4.702;2022-09-09T09:25:38;12.60;;;1.93;;
30247;SDS011;17063;50.892;4.702;2022-09-09T09:28:13;9.37;;;1.90;;
30247;SDS011;17063;50.892;4.702;2022-09-09T09:30:50;6.20;;;1.63;;
30247;SDS011;17063;50.892;4.702;2022-09-09T09:33:54;8.73;;;1.87;;
30247;SDS011;17063;50.892;4.702;2022-09-09T09:36:32;10.67;;;1.70;;
30247;SDS011;17063;50.892;4.702;2022-09-09T09:39:03;7.70;;;1.63;;
30247;SDS011;17063;50.892;4.702;2022-09-09T09:41:52;5.90;;;1.40;;
30247;SDS011;17063;50.892;4.702;2022-09-09T09:44:24;5.00;;;1.80;;
30247;SDS011;17063;50.892;4.702;2022-09-09T09:49:34;5.80;;;2.00;;
30247;SDS011;17063;50.892;4.702;2022-09-09T09:52:02;7.03;;;2.00;;
30247;SDS011;17063;50.892;4.702;2022-09-09T09:54:31;6.37;;;2.00;;
30247;SDS011;17063;50.892;4.702;2022-09-09T09:57:11;8.70;;;2.33;;
30247;SDS011;17063;50.892;4.702;2022-09-09T09:59:41;6.13;;;1.57;;
30247;SDS011;17063;50.892;4.702;2022-09-09T10:02:23;5.23;;;1.83;;
30247;SDS011;17063;50.892;4.702;2022-09-09T10:05:05;9.13;;;1.90;;
30247;SDS011;17063;50.892;4.702;2022-09-09T10:07:42;6.73;;;2.17;;
30247;SDS011;17063;50.892;4.702;2022-09-09T10:10:13;6.97;;;2.20;;
30247;SDS011;17063;50.892;4.702;2022-09-09T10:12:51;8.37;;;2.23;;
30247;SDS011;17063;50.892;4.702;2022-09-09T10:15:30;9.27;;;1.70;;
30247;SDS011;17063;50.892;4.702;2022-09-09T10:18:08;6.50;;;2.00;;
30247;SDS011;17063;50.892;4.702;2022-09-09T10:37:15;6.67;;;1.90;;
30247;SDS011;17063;50.892;4.702;2022-09-09T10:40:02;9.03;;;1.60;;
30247;SDS011;17063;50.892;4.702;2022-09-09T10:42:40;7.40;;;1.90;;
30247;SDS011;17063;50.892;4.702;2022-09-09T10:56:06;4.87;;;1.70;;
30247;SDS011;17063;50.892;4.702;2022-09-09T10:58:38;8.13;;;2.13;;
30247;SDS011;17063;50.892;4.702;2022-09-09T11:01:36;9.20;;;2.27;;
30247;SDS011;17063;50.892;4.702;2022-09-09T11:04:00;8.27;;;1.83;;
30247;SDS011;17063;50.892;4.702;2022-09-09T11:06:41;7.77;;;1.90;;
30247;SDS011;17063;50.892;4.702;2022-09-09T11:09:17;9.77;;;2.10;;
30247;SDS011;17063;50.892;4.702;2022-09-09T11:11:53;7.23;;;2.03;;
30247;SDS011;17063;50.892;4.702;2022-09-09T11:14:37;8.97;;;1.90;;
30247;SDS011;17063;50.892;4.702;2022-09-09T11:17:10;9.37;;;2.30;;
30247;SDS011;17063;50.892;4.702;2022-09-09T11:19:40;9.07;;;2.17;;
30247;SDS011;17063;50.892;4.702;2022-09-09T11:25:15;11.00;;;2.00;;
30247;SDS011;17063;50.892;4.702;2022-09-09T11:44:38;5.93;;;1.70;;
30247;SDS011;17063;50.892;4.702;2022-09-09T11:49:52;8.53;;;2.20;;
30247;SDS011;17063;50.892;4.702;2022-09-09T11:52:40;4.40;;;1.50;;
30247;SDS011;17063;50.892;4.702;2022-09-09T11:55:10;9.23;;;1.50;;
30247;SDS011;17063;50.892;4.702;2022-09-09T11:57:59;7.43;;;1.57;;
30247;SDS011;17063;50.892;4.702;2022-09-09T12:00:37;3.43;;;1.37;;
30247;SDS011;17063;50.892;4.702;2022-09-09T12:06:17;4.90;;;1.40;;
30247;SDS011;17063;50.892;4.702;2022-09-09T12:08:48;4.90;;;1.40;;
30247;SDS011;17063;50.892;4.702;2022-09-09T12:11:26;4.90;;;1.40;;
30247;SDS011;17063;50.892;4.702;2022-09-09T12:13:54;5.50;;;1.40;;
30247;SDS011;17063;50.892;4.702;2022-09-09T12:16:36;4.10;;;1.00;;
30247;SDS011;17063;50.892;4.702;2022-09-09T12:19:15;8.10;;;1.30;;
30247;SDS011;17063;50.892;4.702;2022-09-09T12:21:52;4.67;;;1.50;;
30247;SDS011;17063;50.892;4.702;2022-09-09T12:29:41;3.00;;;1.33;;
30247;SDS011;17063;50.892;4.702;2022-09-09T12:32:24;3.70;;;1.60;;
30247;SDS011;17063;50.892;4.702;2022-09-09T12:34:54;7.60;;;1.30;;
30247;SDS011;17063;50.892;4.702;2022-09-09T12:37:30;4.50;;;1.40;;
30247;SDS011;17063;50.892;4.702;2022-09-09T12:40:01;3.57;;;1.10;;
30247;SDS011;17063;50.892;4.702;2022-09-09T12:42:46;2.43;;;1.00;;
30247;SDS011;17063;50.892;4.702;2022-09-09T12:45:17;5.57;;;1.47;;
30247;SDS011;17063;50.892;4.702;2022-09-09T12:47:54;6.87;;;2.13;;
30247;SDS011;17063;50.892;4.702;2022-09-09T12:50:24;6.83;;;1.40;;
30247;SDS011;17063;50.892;4.702;2022-09-09T12:52:56;5.20;;;1.20;;
30247;SDS011;17063;50.892;4.702;2022-09-09T12:55:30;7.13;;;1.70;;
30247;SDS011;17063;50.892;4.702;2022-09-09T12:58:00;5.63;;;1.77;;
30247;SDS011;17063;50.892;4.702;2022-09-09T13:00:31;3.20;;;1.30;;
30247;SDS011;17063;50.892;4.702;2022-09-09T13:02:59;5.33;;;1.50;;
30247;SDS011;17063;50.892;4.702;2022-09-09T13:05:31;5.03;;;1.27;;
30247;SDS011;17063;50.892;4.702;2022-09-09T13:08:05;4.13;;;1.50;;
30247;SDS011;17063;50.892;4.702;2022-09-09T13:10:46;2.50;;;1.37;;
30247;SDS011;17063;50.892;4.702;2022-09-09T13:13:28;2.87;;;1.10;;
30247;SDS011;17063;50.892;4.702;2022-09-09T13:16:17;3.87;;;1.10;;
30247;SDS011;17063;50.892;4.702;2022-09-09T13:18:49;3.57;;;1.50;;
30247;SDS011;17063;50.892;4.702;2022-09-09T13:21:19;3.97;;;1.40;;
30247;SDS011;17063;50.892;4.702;2022-09-09T13:23:50;4.67;;;1.10;;
30247;SDS011;17063;50.892;4.702;2022-09-09T13:26:20;3.07;;;1.20;;
30247;SDS011;17063;50.892;4.702;2022-09-09T13:28:49;5.43;;;1.00;;
30247;SDS011;17063;50.892;4.702;2022-09-09T13:31:23;3.20;;;0.93;;
30247;SDS011;17063;50.892;4.702;2022-09-09T13:33:56;1.87;;;0.67;;
30247;SDS011;17063;50.892;4.702;2022-09-09T13:36:33;4.03;;;1.17;;
30247;SDS011;17063;50.892;4.702;2022-09-09T13:39:02;2.90;;;1.80;;
30247;SDS011;17063;50.892;4.702;2022-09-09T13:41:32;4.00;;;1.20;;
30247;SDS011;17063;50.892;4.702;2022-09-09T13:44:00;2.33;;;1.10;;
30247;SDS011;17063;50.892;4.702;2022-09-09T13:46:37;7.53;;;1.50;;
30247;SDS011;17063;50.892;4.702;2022-09-09T13:54:28;2.50;;;0.70;;
30247;SDS011;17063;50.892;4.702;2022-09-09T13:56:57;4.63;;;1.40;;
30247;SDS011;17063;50.892;4.702;2022-09-09T13:59:23;5.00;;;1.10;;
30247;SDS011;17063;50.892;4.702;2022-09-09T14:02:07;5.90;;;1.20;;
30247;SDS011;17063;50.892;4.702;2022-09-09T14:04:34;4.57;;;0.90;;
30247;SDS011;17063;50.892;4.702;2022-09-09T14:07:01;4.90;;;1.00;;
30247;SDS011;17063;50.892;4.702;2022-09-09T14:09:28;3.43;;;1.30;;
30247;SDS011;17063;50.892;4.702;2022-09-09T14:11:55;3.27;;;1.20;;
30247;SDS011;17063;50.892;4.702;2022-09-09T14:14:22;1.53;;;0.90;;
30247;SDS011;17063;50.892;4.702;2022-09-09T14:16:48;2.10;;;0.90;;
30247;SDS011;17063;50.892;4.702;2022-09-09T14:19:15;5.27;;;0.97;;
30247;SDS011;17063;50.892;4.702;2022-09-09T14:21:42;3.03;;;1.40;;
30247;SDS011;17063;50.892;4.702;2022-09-09T14:24:09;3.10;;;0.90;;
30247;SDS011;17063;50.892;4.702;2022-09-09T14:26:36;3.13;;;1.00;;
30247;SDS011;17063;50.892;4.702;2022-09-09T14:29:03;1.53;;;1.00;;
30247;SDS011;17063;50.892;4.702;2022-09-09T14:31:29;3.00;;;1.00;;
30247;SDS011;17063;50.892;4.702;2022-09-09T14:33:56;2.70;;;1.07;;
30247;SDS011;17063;50.892;4.702;2022-09-09T14:36:24;5.07;;;1.07;;
30247;SDS011;17063;50.892;4.702;2022-09-09T14:38:50;3.27;;;1.00;;
30247;SDS011;17063;50.892;4.702;2022-09-09T14:41:18;1.90;;;0.80;;
30247;SDS011;17063;50.892;4.702;2022-09-09T14:43:46;2.43;;;1.07;;
30247;SDS011;17063;50.892;4.702;2022-09-09T14:46:14;1.20;;;1.10;;
30247;SDS011;17063;50.892;4.702;2022-09-09T14:48:42;3.70;;;1.00;;
30247;SDS011;17063;50.892;4.702;2022-09-09T14:51:11;2.27;;;1.00;;
30247;SDS011;17063;50.892;4.702;2022-09-09T14:53:39;4.10;;;1.20;;
30247;SDS011;17063;50.892;4.702;2022-09-09T14:56:07;4.83;;;0.97;;
30247;SDS011;17063;50.892;4.702;2022-09-09T14:58:36;4.47;;;1.17;;
30247;SDS011;17063;50.892;4.702;2022-09-09T15:01:04;3.43;;;1.17;;
30247;SDS011;17063;50.892;4.702;2022-09-09T15:03:33;5.47;;;1.10;;
30247;SDS011;17063;50.892;4.702;2022-09-09T15:06:13;2.30;;;0.90;;
30247;SDS011;17063;50.892;4.702;2022-09-09T15:08:41;4.83;;;1.30;;
30247;SDS011;17063;50.892;4.702;2022-09-09T15:11:10;3.40;;;1.17;;
30247;SDS011;17063;50.892;4.702;2022-09-09T15:13:38;2.60;;;1.10;;
30247;SDS011;17063;50.892;4.702;2022-09-09T15:16:07;2.67;;;1.00;;
30247;SDS011;17063;50.892;4.702;2022-09-09T15:18:39;4.80;;;1.10;;
30247;SDS011;17063;50.892;4.702;2022-09-09T15:21:10;4.57;;;1.20;;
30247;SDS011;17063;50.892;4.702;2022-09-09T15:23:41;3.90;;;1.23;;
30247;SDS011;17063;50.892;4.702;2022-09-09T15:26:08;4.33;;;1.20;;
30247;SDS011;17063;50.892;4.702;2022-09-09T15:28:36;3.17;;;1.10;;
30247;SDS011;17063;50.892;4.702;2022-09-09T15:31:05;4.40;;;1.10;;
30247;SDS011;17063;50.892;4.702;2022-09-09T15:33:41;4.27;;;1.50;;
30247;SDS011;17063;50.892;4.702;2022-09-09T15:38:48;1.97;;;1.10;;
30247;SDS011;17063;50.892;4.702;2022-09-09T15:41:16;3.37;;;1.00;;
30247;SDS011;17063;50.892;4.702;2022-09-09T15:43:48;5.17;;;1.13;;
30247;SDS011;17063;50.892;4.702;2022-09-09T15:48:46;5.03;;;1.10;;
30247;SDS011;17063;50.892;4.702;2022-09-09T15:51:17;3.10;;;1.13;;
30247;SDS011;17063;50.892;4.702;2022-09-09T15:54:05;3.73;;;1.27;;
30247;SDS011;17063;50.892;4.702;2022-09-09T15:56:32;3.53;;;1.20;;
30247;SDS011;17063;50.892;4.702;2022-09-09T15:58:59;4.33;;;1.17;;
30247;SDS011;17063;50.892;4.702;2022-09-09T16:01:27;3.93;;;1.23;;
30247;SDS011;17063;50.892;4.702;2022-09-09T16:03:55;2.03;;;1.20;;
30247;SDS011;17063;50.892;4.702;2022-09-09T16:06:22;2.80;;;1.07;;
30247;SDS011;17063;50.892;4.702;2022-09-09T16:08:52;3.33;;;1.10;;
30247;SDS011;17063;50.892;4.702;2022-09-09T16:11:22;3.40;;;1.37;;
30247;SDS011;17063;50.892;4.702;2022-09-09T16:13:51;5.43;;;1.17;;
30247;SDS011;17063;50.892;4.702;2022-09-09T16:16:20;2.83;;;1.03;;
30247;SDS011;17063;50.892;4.702;2022-09-09T16:18:49;3.50;;;1.20;;
30247;SDS011;17063;50.892;4.702;2022-09-09T16:21:20;3.73;;;0.93;;
30247;SDS011;17063;50.892;4.702;2022-09-09T16:23:52;3.20;;;1.23;;
30247;SDS011;17063;50.892;4.702;2022-09-09T16:26:22;2.63;;;1.00;;
30247;SDS011;17063;50.892;4.702;2022-09-09T16:28:51;6.67;;;1.07;;
30247;SDS011;17063;50.892;4.702;2022-09-09T16:31:21;2.87;;;1.00;;
30247;SDS011;17063;50.892;4.702;2022-09-09T16:33:49;2.13;;;0.90;;
30247;SDS011;17063;50.892;4.702;2022-09-09T16:36:41;4.30;;;1.00;;
30247;SDS011;17063;50.892;4.702;2022-09-09T16:39:10;3.17;;;1.10;;
30247;SDS011;17063;50.892;4.702;2022-09-09T16:41:39;2.27;;;1.30;;
30247;SDS011;17063;50.892;4.702;2022-09-09T16:44:07;6.43;;;1.23;;
30247;SDS011;17063;50.892;4.702;2022-09-09T16:46:35;2.17;;;1.20;;
30247;SDS011;17063;50.892;4.702;2022-09-09T16:49:06;3.57;;;1.20;;
30247;SDS011;17063;50.892;4.702;2022-09-09T16:51:35;4.07;;;1.30;;
30247;SDS011;17063;50.892;4.702;2022-09-09T16:54:04;6.43;;;1.63;;
30247;SDS011;17063;50.892;4.702;2022-09-09T16:56:33;3.27;;;1.37;;
30247;SDS011;17063;50.892;4.702;2022-09-09T16:59:09;5.40;;;1.73;;
30247;SDS011;17063;50.892;4.702;2022-09-09T17:01:37;2.40;;;1.50;;
30247;SDS011;17063;50.892;4.702;2022-09-09T17:04:11;2.83;;;1.50;;
30247;SDS011;17063;50.892;4.702;2022-09-09T17:06:40;1.70;;;0.97;;
30247;SDS011;17063;50.892;4.702;2022-09-09T17:09:08;2.70;;;1.47;;
30247;SDS011;17063;50.892;4.702;2022-09-09T17:11:36;3.20;;;1.40;;
30247;SDS011;17063;50.892;4.702;2022-09-09T17:14:05;5.13;;;1.37;;
30247;SDS011;17063;50.892;4.702;2022-09-09T17:16:33;4.50;;;1.20;;
30247;SDS011;17063;50.892;4.702;2022-09-09T17:19:03;2.57;;;1.10;;
30247;SDS011;17063;50.892;4.702;2022-09-09T17:21:31;3.40;;;1.17;;
30247;SDS011;17063;50.892;4.702;2022-09-09T17:23:58;2.03;;;1.20;;
30247;SDS011;17063;50.892;4.702;2022-09-09T17:26:26;5.60;;;1.37;;
30247;SDS011;17063;50.892;4.702;2022-09-09T17:28:56;2.80;;;1.10;;